This is the latest recevied weather packets stored in our database for station/object W1BKW. If no packets are shown the sender has not sent any weather packets the latest 10 day(s).
| Time | Temp. | Humidity | Pressure | Rain* | Wind** | Luminosity | Snow |
|---|---|---|---|---|---|---|---|
| 1777896837 | 5.56° C | 76% | 1006.1 hPa | 0 mm | - | 22 W/m² | - |
| 1777895935 | 5° C | 78% | 1006.1 hPa | 0 mm | - | 69 W/m² | - |
| 1777895034 | 3.89° C | 90% | 1006 hPa | 0 mm | - | 49 W/m² | - |
| 1777894131 | 2.78° C | 96% | 1006.2 hPa | 0 mm | - | 92 W/m² | - |
| 1777893226 | 1.67° C | 96% | 1006 hPa | 0 mm | - | 43 W/m² | - |
| 1777892321 | 1.11° C | 97% | 1006.1 hPa | 0 mm | - | 32 W/m² | - |
| 1777891417 | 1.11° C | 98% | 1006.4 hPa | 0 mm | - | 29 W/m² | - |
| 1777890516 | 0.56° C | 99% | 1006.2 hPa | 0 mm | - | 26 W/m² | - |
| 1777889612 | 0.56° C | 99% | 1006.3 hPa | 0 mm | - | 8 W/m² | - |
| 1777888710 | 0.56° C | 99% | 1006.2 hPa | 0 mm | - | 4 W/m² | - |
| 1777887805 | 0° C | 99% | 1006.1 hPa | 0 mm | - | 1 W/m² | - |
| 1777886905 | -0.56° C | 99% | 1006.3 hPa | 0 mm | - | 0 W/m² | - |
| 1777886001 | -0.56° C | 99% | 1006.2 hPa | 0 mm | - | 0 W/m² | - |
| 1777885096 | -0.56° C | 99% | 1006.4 hPa | 0 mm | - | 0 W/m² | - |
| 1777884192 | -0.56° C | 99% | 1006.1 hPa | 0 mm | - | 0 W/m² | - |
| 1777883287 | -1.11° C | 99% | 1006.4 hPa | 0 mm | - | 0 W/m² | - |
| 1777882382 | -0.56° C | 99% | 1006.2 hPa | 0 mm | - | 0 W/m² | - |
| 1777881478 | -0.56° C | 99% | 1006.3 hPa | 0 mm | - | 0 W/m² | - |
| 1777880576 | -0.56° C | 99% | 1006.2 hPa | 0 mm | - | 0 W/m² | - |
| 1777879677 | -0.56° C | 99% | 1005.9 hPa | 0 mm | - | 0 W/m² | - |
| 1777878773 | -0.56° C | 97% | 1006.2 hPa | 0 mm | - | 0 W/m² | - |
| 1777877869 | -0.56° C | 97% | 1006.1 hPa | 0 mm | - | 0 W/m² | - |
| 1777876965 | -0.56° C | 98% | 1005.9 hPa | 0 mm | - | 0 W/m² | - |
| 1777876062 | 0° C | 97% | 1006 hPa | 0 mm | - | 0 W/m² | - |
| 1777875157 | 0° C | 96% | 1005.9 hPa | 0 mm | - | 0 W/m² | - |
* Rain latest hour (hover to see other rain measurements)
** Current wind speed in m/s (hover to see current wind gust speed)